PILOTS ONLINE: 134    ATC ONLINE: 21

KFHU

Sierra Vista Municipal Libby Army Air Field

Location

IATA FHU
City Fort Huachuca Sierra Vista
Country  United States
Latitude 31° 35' 18" N
Longitude 110° 20' 38" W
Elevation 4719 ft
Type Medium Airport

Map

Weather

METAR
2014/10/23 05:55
KFHU 230555Z 25005KT 10SM CLR 16/06 A3016 RMK SLP161 52005
TAF
2014/10/23 03:38
TAF KFHU 2303/2409 VRB06KT 9999 SKC QNH3013INS 
      BECMG 2319/2320 13009KT 9999 FEW250 QNH3015INS 
      BECMG 2401/2402 VRB06KT 9999 FEW250 QNH3017INS TX27/2322Z TN13/2312Z

Runways

03/21 4285 ft / 75 ft
08/26 12001 ft / 150 ft
12/30 5366 ft / 100 ft

Outbound flights

Callsign Flying to Pilot ATD/STD ETA Aircraft

Inbound flights

Callsign Flying from Pilot ATD ETA Aircraft